CheckWX is a tool to help pilots better visualize weather data.  It is not intended as a substitute for an official pre-flight weather briefing.

11:31:11 UTC

RPLC TAF
Clark International Airport
Angeles City, Philippines
TAF RPLC 240500Z 2406/2512 18006KT 9999 SCT020 BKN300 TX35/2406Z TN26/2422Z TEMPO 2406/2412 27010KT 8000 -TSRA FEW015CB SCT020 OVC100

Jun-24@
06:00 UTC

Jun-24 @ 06:00 UTC

Jun-25@
12:00 UTC

Jun-25 @ 12:00 UTC

TAF RPLC 240500Z 2406/2512 18006KT 9999 SCT020 BKN300 TX35/2406Z TN26/2422Z
Wind
  • 180° at 6 KTS
Cloud Levels
  • Scattered at 2,000' AGL
  • Broken at 30,000' AGL

Jun-24@
06:00 UTC

Jun-24 @ 06:00 UTC

Jun-24@
12:00 UTC

Jun-24 @ 12:00 UTC

TEMPO 2406/2412 27010KT 8000 -TSRA FEW015CB SCT020 OVC100

Temporary

Temporary Changes expected for less than half the time period

Wind
  • 270° at 10 KTS
Conditions
Light Thunderstorm, Light Rain
Cloud Levels
  • Few at 1,500' AGL
  • Scattered at 2,000' AGL
  • Overcast at 10,000' AGL